createdAt,value
2023-03-16T00:00:19.268Z,79.05
2023-03-16T00:01:19.261Z,78.94
2023-03-16T00:02:19.297Z,79.36
2023-03-16T00:03:19.412Z,78.53
2023-03-16T00:04:19.266Z,78.32
2023-03-16T00:05:19.228Z,78.21
2023-03-16T00:06:19.218Z,78.42
2023-03-16T00:07:19.210Z,78.53
2023-03-16T00:08:19.199Z,78.42
2023-03-16T00:09:19.205Z,78.42
2023-03-16T00:10:19.184Z,79.05
2023-03-16T00:11:19.178Z,78.63
2023-03-16T00:12:19.204Z,78.94
2023-03-16T00:13:19.156Z,79.40
2023-03-16T00:14:19.174Z,79.68
2023-03-16T00:15:19.139Z,79.88
2023-03-16T00:16:19.204Z,79.88
2023-03-16T00:17:19.440Z,80.41
2023-03-16T00:18:19.119Z,80.20
2023-03-16T00:19:19.113Z,80.02
2023-03-16T00:20:19.110Z,80.34
2023-03-16T00:21:19.088Z,80.65
2023-03-16T00:22:19.081Z,81.18
2023-03-16T00:23:19.072Z,81.28
2023-03-16T00:24:19.067Z,81.18
2023-03-16T00:25:19.051Z,81.49
2023-03-16T00:26:19.039Z,81.03
2023-03-16T00:27:19.028Z,81.18
2023-03-16T00:28:19.024Z,81.03
2023-03-16T00:29:19.030Z,81.45
2023-03-16T00:30:19.005Z,81.13
2023-03-16T00:31:19.010Z,81.35
2023-03-16T00:32:18.982Z,81.56
2023-03-16T00:33:18.980Z,81.35
2023-03-16T00:34:19.025Z,81.97
2023-03-16T00:35:18.949Z,82.70
2023-03-16T00:36:19.946Z,82.50
2023-03-16T00:37:18.975Z,82.60
2023-03-16T00:38:18.936Z,82.18
2023-03-16T00:39:18.931Z,82.70
2023-03-16T00:40:18.912Z,82.32
2023-03-16T00:41:18.902Z,82.60
2023-03-16T00:42:18.896Z,82.95
2023-03-16T00:43:18.903Z,83.12
2023-03-16T00:44:18.885Z,82.70
2023-03-16T00:45:18.871Z,82.95
2023-03-16T00:46:18.907Z,82.91
2023-03-16T00:47:18.858Z,83.12
2023-03-16T00:48:18.859Z,83.01
2023-03-16T00:49:18.846Z,83.06
2023-03-16T00:50:18.822Z,83.47
2023-03-16T00:51:18.832Z,83.58
2023-03-16T00:52:18.807Z,82.64
2023-03-16T00:53:18.805Z,83.23
2023-03-16T00:54:18.798Z,83.44
2023-03-16T00:55:18.794Z,83.26
2023-03-16T00:56:18.764Z,83.58
2023-03-16T00:57:19.759Z,83.16
2023-03-16T00:58:18.755Z,83.47
2023-03-16T00:59:18.765Z,82.95
2023-03-16T01:00:18.732Z,83.12
2023-03-16T01:01:18.809Z,83.68
2023-03-16T01:02:18.717Z,83.37
2023-03-16T01:03:18.787Z,83.58
2023-03-16T01:04:18.713Z,83.16
2023-03-16T01:05:18.695Z,83.58
2023-03-16T01:06:18.690Z,82.95
2023-03-16T01:07:18.674Z,83.54
2023-03-16T01:08:18.722Z,83.06
2023-03-16T01:09:18.666Z,83.89
2023-03-16T01:10:18.654Z,83.58
2023-03-16T01:11:18.636Z,83.54
2023-03-16T01:12:18.633Z,83.78
2023-03-16T01:13:18.627Z,83.12
2023-03-16T01:14:18.637Z,83.01
2023-03-16T01:15:18.619Z,83.54
2023-03-16T01:16:18.646Z,82.84
2023-03-16T01:17:18.604Z,83.37
2023-03-16T01:18:18.588Z,82.53
2023-03-16T01:19:18.621Z,82.74
2023-03-16T01:20:18.570Z,82.74
2023-03-16T01:21:18.555Z,82.64
2023-03-16T01:22:18.578Z,82.50
2023-03-16T01:23:18.543Z,82.32
2023-03-16T01:24:18.542Z,82.29
2023-03-16T01:25:18.527Z,82.18
2023-03-16T01:26:18.513Z,82.39
2023-03-16T01:27:18.505Z,82.18
2023-03-16T01:28:18.493Z,82.53
2023-03-16T01:29:18.604Z,82.53
2023-03-16T01:30:18.484Z,82.39
2023-03-16T01:31:18.499Z,82.22
2023-03-16T01:32:18.495Z,82.64
2023-03-16T01:33:18.466Z,82.32
2023-03-16T01:34:18.439Z,82.32
2023-03-16T01:35:19.461Z,82.29
2023-03-16T01:36:18.429Z,82.18
2023-03-16T01:37:18.422Z,82.22
2023-03-16T01:38:18.413Z,82.43
2023-03-16T01:39:18.408Z,82.32
2023-03-16T01:40:18.415Z,82.64
2023-03-16T01:41:18.392Z,82.32
2023-03-16T01:42:18.385Z,82.64
2023-03-16T01:43:18.373Z,82.32
2023-03-16T01:44:18.360Z,82.64
2023-03-16T01:45:18.365Z,82.74
2023-03-16T01:46:18.547Z,82.18
2023-03-16T01:47:18.402Z,82.32
2023-03-16T01:48:18.320Z,82.53
2023-03-16T01:49:18.329Z,82.53
2023-03-16T01:50:18.319Z,82.39
2023-03-16T01:51:18.298Z,82.32
2023-03-16T01:52:18.297Z,82.32
2023-03-16T01:53:18.282Z,82.22
2023-03-16T01:54:18.268Z,82.39
2023-03-16T01:55:19.273Z,82.53
2023-03-16T01:56:18.258Z,82.43
2023-03-16T01:57:18.255Z,82.53
2023-03-16T01:58:18.241Z,82.74
2023-03-16T01:59:18.232Z,82.53
2023-03-16T02:00:18.236Z,82.64
2023-03-16T02:01:18.269Z,82.74
2023-03-16T02:02:18.205Z,82.32
2023-03-16T02:03:18.204Z,82.29
2023-03-16T02:04:18.246Z,82.32
2023-03-16T02:05:18.194Z,82.74
2023-03-16T02:06:18.248Z,82.39
2023-03-16T02:07:18.188Z,82.64
2023-03-16T02:08:18.160Z,82.64
2023-03-16T02:09:18.150Z,82.74
2023-03-16T02:10:18.148Z,82.53
2023-03-16T02:11:18.230Z,82.43
2023-03-16T02:12:18.160Z,82.32
2023-03-16T02:13:18.115Z,82.32
2023-03-16T02:14:18.099Z,82.43
2023-03-16T02:15:19.130Z,82.22
2023-03-16T02:16:18.109Z,82.43
2023-03-16T02:17:18.081Z,82.22
2023-03-16T02:18:18.077Z,82.74
2023-03-16T02:19:18.062Z,82.53
2023-03-16T02:20:18.074Z,82.78
2023-03-16T02:21:18.046Z,82.57
2023-03-16T02:22:18.036Z,83.09
2023-03-16T02:23:18.030Z,82.78
2023-03-16T02:24:18.030Z,82.78
2023-03-16T02:25:18.023Z,82.78
2023-03-16T02:26:18.003Z,83.40
2023-03-16T02:27:17.994Z,83.30
2023-03-16T02:28:17.985Z,83.20
2023-03-16T02:29:17.976Z,82.89
2023-03-16T02:30:17.975Z,83.40
2023-03-16T02:31:18.027Z,83.30
2023-03-16T02:32:17.967Z,83.40
2023-03-16T02:33:17.942Z,83.51
2023-03-16T02:34:17.953Z,82.99
2023-03-16T02:35:17.943Z,83.51
2023-03-16T02:36:17.921Z,83.30
2023-03-16T02:37:17.907Z,83.20
2023-03-16T02:38:17.902Z,82.99
2023-03-16T02:39:17.889Z,83.40
2023-03-16T02:40:17.908Z,83.51
2023-03-16T02:41:17.871Z,83.30
2023-03-16T02:42:17.862Z,82.89
2023-03-16T02:43:17.851Z,82.57
2023-03-16T02:44:17.857Z,82.99
2023-03-16T02:45:17.839Z,82.99
2023-03-16T02:46:17.873Z,82.78
2023-03-16T02:47:17.815Z,83.20
2023-03-16T02:48:17.800Z,82.99
2023-03-16T02:49:17.803Z,82.78
2023-03-16T02:50:17.796Z,82.67
2023-03-16T02:51:17.785Z,82.32
2023-03-16T02:52:17.775Z,82.26
2023-03-16T02:53:17.763Z,82.78
2023-03-16T02:54:17.750Z,82.67
2023-03-16T02:55:17.748Z,82.67
2023-03-16T02:56:17.730Z,82.46
2023-03-16T02:57:17.722Z,82.67
2023-03-16T02:58:17.715Z,82.36
2023-03-16T02:59:17.705Z,82.67
2023-03-16T03:00:17.702Z,82.78
2023-03-16T03:01:17.688Z,82.64
2023-03-16T03:02:17.685Z,82.67
2023-03-16T03:03:17.743Z,82.78
2023-03-16T03:04:17.675Z,82.36
2023-03-16T03:05:17.659Z,82.71
2023-03-16T03:06:17.641Z,82.46
2023-03-16T03:07:17.628Z,82.64
2023-03-16T03:08:17.624Z,82.36
2023-03-16T03:09:17.609Z,82.46
2023-03-16T03:10:17.621Z,82.26
2023-03-16T03:11:17.592Z,82.26
2023-03-16T03:12:17.585Z,82.50
2023-03-16T03:13:17.576Z,82.36
2023-03-16T03:14:17.568Z,82.67
2023-03-16T03:15:17.567Z,82.67
2023-03-16T03:16:17.642Z,82.78
2023-03-16T03:17:17.549Z,82.50
2023-03-16T03:18:17.529Z,82.71
2023-03-16T03:19:17.526Z,83.23
2023-03-16T03:20:17.526Z,82.71
2023-03-16T03:21:17.507Z,83.03
2023-03-16T03:22:17.504Z,83.13
2023-03-16T03:23:17.493Z,84.00
2023-03-16T03:24:17.477Z,84.32
2023-03-16T03:25:17.491Z,84.95
2023-03-16T03:26:17.462Z,84.74
2023-03-16T03:27:17.452Z,84.42
2023-03-16T03:28:17.445Z,84.63
2023-03-16T03:29:17.451Z,84.17
2023-03-16T03:30:17.444Z,84.32
2023-03-16T03:31:17.449Z,84.42
2023-03-16T03:32:17.410Z,84.42
2023-03-16T03:33:17.409Z,84.32
2023-03-16T03:34:17.389Z,84.39
2023-03-16T03:35:17.431Z,84.17
2023-03-16T03:36:17.379Z,84.07
2023-03-16T03:37:17.366Z,84.17
2023-03-16T03:38:17.364Z,83.97
2023-03-16T03:39:17.366Z,84.39
2023-03-16T03:40:17.385Z,84.28
2023-03-16T03:41:17.331Z,84.28
2023-03-16T03:42:17.324Z,84.32
2023-03-16T03:43:17.317Z,84.42
2023-03-16T03:44:17.306Z,84.53
2023-03-16T03:45:17.330Z,84.63
2023-03-16T03:46:17.472Z,84.63
2023-03-16T03:47:17.290Z,85.05
2023-03-16T03:48:17.269Z,84.95
2023-03-16T03:49:17.272Z,84.95
2023-03-16T03:50:17.264Z,84.63
2023-03-16T03:51:17.260Z,84.95
2023-03-16T03:52:17.232Z,85.05
2023-03-16T03:53:17.227Z,84.74
2023-03-16T03:54:17.211Z,84.84
2023-03-16T03:55:17.216Z,85.05
2023-03-16T03:56:17.199Z,85.05
2023-03-16T03:57:17.195Z,84.63
2023-03-16T03:58:17.188Z,85.05
2023-03-16T03:59:17.218Z,85.16
2023-03-16T04:00:17.181Z,85.33
2023-03-16T04:01:17.159Z,85.33
2023-03-16T04:02:17.187Z,85.01
2023-03-16T04:03:17.286Z,84.95
2023-03-16T04:04:17.126Z,85.12
2023-03-16T04:05:17.137Z,85.26
2023-03-16T04:06:17.112Z,85.26
2023-03-16T04:07:17.115Z,85.12
2023-03-16T04:08:17.090Z,85.33
2023-03-16T04:09:17.086Z,85.33
2023-03-16T04:10:17.086Z,85.01
2023-03-16T04:11:17.060Z,84.66
2023-03-16T04:12:17.052Z,84.91
2023-03-16T04:13:17.059Z,84.80
2023-03-16T04:14:17.039Z,84.32
2023-03-16T04:15:17.066Z,84.32
2023-03-16T04:16:17.056Z,84.95
2023-03-16T04:17:17.007Z,84.88
2023-03-16T04:18:17.002Z,85.36
2023-03-16T04:19:16.993Z,85.16
2023-03-16T04:20:16.975Z,85.78
2023-03-16T04:21:17.009Z,85.61
2023-03-16T04:22:16.961Z,85.89
2023-03-16T04:23:16.957Z,85.78
2023-03-16T04:24:16.940Z,85.36
2023-03-16T04:25:16.936Z,85.05
2023-03-16T04:26:16.928Z,85.16
2023-03-16T04:27:16.947Z,85.26
2023-03-16T04:28:16.936Z,85.36
2023-03-16T04:29:16.956Z,85.82
2023-03-16T04:30:16.915Z,85.41
2023-03-16T04:31:17.040Z,86.49
2023-03-16T04:32:16.870Z,87.08
2023-03-16T04:33:16.864Z,86.98
2023-03-16T04:34:16.851Z,87.08
2023-03-16T04:35:16.847Z,86.52
2023-03-16T04:36:16.910Z,86.31
2023-03-16T04:37:16.852Z,86.31
2023-03-16T04:38:16.818Z,86.20
2023-03-16T04:39:16.830Z,85.68
2023-03-16T04:40:16.820Z,85.68
2023-03-16T04:41:16.853Z,85.58
2023-03-16T04:42:16.775Z,85.47
2023-03-16T04:43:16.760Z,85.68
2023-03-16T04:44:16.768Z,85.68
2023-03-16T04:45:16.745Z,85.26
2023-03-16T04:46:16.810Z,85.36
2023-03-16T04:47:16.738Z,85.36
2023-03-16T04:48:16.719Z,84.63
2023-03-16T04:49:16.716Z,84.95
2023-03-16T04:50:16.702Z,85.26
2023-03-16T04:51:16.701Z,85.26
2023-03-16T04:52:16.677Z,85.47
2023-03-16T04:53:16.670Z,84.74
2023-03-16T04:54:16.666Z,85.36
2023-03-16T04:55:16.657Z,84.49
2023-03-16T04:56:16.652Z,84.95
2023-03-16T04:57:48.543Z,84.91
2023-03-16T04:58:16.652Z,85.16
2023-03-16T04:59:16.619Z,84.95
2023-03-16T05:00:16.626Z,85.68
2023-03-16T05:01:16.642Z,85.99
2023-03-16T05:02:16.590Z,85.99
2023-03-16T05:03:16.583Z,85.89
2023-03-16T05:04:19.540Z,85.68
2023-03-16T05:05:17.650Z,85.78
2023-03-16T05:06:16.568Z,85.99
2023-03-16T05:07:16.544Z,85.53
2023-03-16T05:08:16.533Z,85.36
2023-03-16T05:09:16.532Z,85.36
2023-03-16T05:10:16.516Z,85.26
2023-03-16T05:11:16.523Z,85.36
2023-03-16T05:12:16.512Z,85.05
2023-03-16T05:13:16.494Z,85.16
2023-03-16T05:14:16.489Z,85.26
2023-03-16T05:15:16.481Z,85.05
2023-03-16T05:16:16.545Z,85.16
2023-03-16T05:17:16.463Z,84.95
2023-03-16T05:18:16.447Z,85.16
2023-03-16T05:19:16.458Z,85.47
2023-03-16T05:20:16.723Z,85.16
2023-03-16T05:21:16.423Z,85.47
2023-03-16T05:22:16.406Z,85.89
2023-03-16T05:23:16.397Z,85.89
2023-03-16T05:24:16.394Z,85.68
2023-03-16T05:25:16.400Z,85.89
2023-03-16T05:26:16.529Z,85.78
2023-03-16T05:27:16.376Z,85.99
2023-03-16T05:28:16.349Z,85.68
2023-03-16T05:29:16.345Z,85.68
2023-03-16T05:30:16.370Z,85.89
2023-03-16T05:31:16.429Z,86.10
2023-03-16T05:32:16.316Z,86.10
2023-03-16T05:33:16.298Z,86.20
2023-03-16T05:34:16.325Z,86.10
2023-03-16T05:35:16.281Z,86.10
2023-03-16T05:36:16.279Z,86.31
2023-03-16T05:37:16.273Z,86.20
2023-03-16T05:38:16.252Z,85.99
2023-03-16T05:39:16.246Z,86.10
2023-03-16T05:40:16.237Z,86.31
2023-03-16T05:41:16.240Z,85.78
2023-03-16T05:42:16.222Z,86.41
2023-03-16T05:43:16.220Z,86.20
2023-03-16T05:44:16.204Z,85.74
2023-03-16T05:45:16.203Z,85.85
2023-03-16T05:46:16.231Z,85.53
2023-03-16T05:47:16.182Z,85.47
2023-03-16T05:48:16.168Z,85.85
2023-03-16T05:49:16.171Z,85.68
2023-03-16T05:50:16.151Z,86.20
2023-03-16T05:51:16.163Z,85.68
2023-03-16T05:52:16.154Z,86.20
2023-03-16T05:53:16.131Z,85.99
2023-03-16T05:54:16.116Z,86.20
2023-03-16T05:55:16.111Z,85.96
2023-03-16T05:56:16.123Z,85.89
2023-03-16T05:57:16.091Z,86.24
2023-03-16T05:58:16.087Z,86.98
2023-03-16T05:59:16.075Z,87.29
2023-03-16T06:00:16.075Z,87.46
2023-03-16T06:01:16.070Z,87.50
2023-03-16T06:02:16.045Z,87.77
2023-03-16T06:03:16.163Z,86.93
2023-03-16T06:04:16.054Z,86.90
2023-03-16T06:05:16.020Z,86.65
2023-03-16T06:06:16.022Z,86.13
2023-03-16T06:07:16.000Z,86.16
2023-03-16T06:08:15.998Z,85.91
2023-03-16T06:09:15.983Z,85.74
2023-03-16T06:10:15.986Z,85.91
2023-03-16T06:11:15.976Z,85.71
2023-03-16T06:12:15.962Z,85.77
2023-03-16T06:13:15.951Z,85.77
2023-03-16T06:14:15.944Z,84.41
2023-03-16T06:15:15.932Z,83.33
2023-03-16T06:16:16.087Z,83.16
2023-03-16T06:17:15.910Z,83.78
2023-03-16T06:18:16.913Z,84.62
2023-03-16T06:19:15.930Z,85.71
2023-03-16T06:20:15.887Z,85.25
2023-03-16T06:21:15.892Z,84.79
2023-03-16T06:22:15.927Z,83.58
2023-03-16T06:23:15.859Z,83.23
2023-03-16T06:24:15.850Z,83.12
2023-03-16T06:25:15.843Z,83.29
2023-03-16T06:26:15.889Z,83.29
2023-03-16T06:27:15.819Z,82.29
2023-03-16T06:28:16.816Z,82.87
2023-03-16T06:29:15.808Z,82.98
2023-03-16T06:30:15.844Z,82.42
2023-03-16T06:31:15.815Z,80.44
2023-03-16T06:32:15.783Z,81.41
2023-03-16T06:33:15.780Z,82.25
2023-03-16T06:34:15.766Z,82.46
2023-03-16T06:35:15.754Z,82.67
2023-03-16T06:36:15.768Z,82.91
2023-03-16T06:37:15.751Z,85.00
2023-03-16T06:38:15.727Z,83.33
2023-03-16T06:39:15.718Z,83.44
2023-03-16T06:40:15.709Z,84.17
2023-03-16T06:41:15.714Z,84.27
2023-03-16T06:42:15.698Z,83.64
2023-03-16T06:43:15.681Z,83.44
2023-03-16T06:44:15.673Z,82.50
2023-03-16T06:45:15.660Z,82.70
2023-03-16T06:46:15.713Z,83.23
2023-03-16T06:47:15.666Z,83.33
2023-03-16T06:48:15.652Z,82.95
2023-03-16T06:49:15.632Z,83.58
2023-03-16T06:50:15.616Z,83.26
2023-03-16T06:51:16.847Z,83.68
2023-03-16T06:52:16.592Z,84.10
2023-03-16T06:53:15.586Z,83.58
2023-03-16T06:54:15.605Z,84.31
2023-03-16T06:55:15.572Z,84.41
2023-03-16T06:56:15.571Z,84.00
2023-03-16T06:57:15.549Z,84.31
2023-03-16T06:58:15.555Z,83.44
2023-03-16T06:59:15.538Z,83.16
2023-03-16T07:00:15.561Z,83.26
2023-03-16T07:01:15.580Z,83.68
2023-03-16T07:02:15.508Z,84.06
2023-03-16T07:03:15.508Z,83.64
2023-03-16T07:04:15.549Z,83.92
2023-03-16T07:05:15.471Z,83.36
2023-03-16T07:06:16.479Z,83.57
2023-03-16T07:07:15.465Z,83.25
2023-03-16T07:08:15.510Z,82.59
2023-03-16T07:09:15.447Z,82.28
2023-03-16T07:10:15.435Z,82.48
2023-03-16T07:11:15.440Z,81.55
2023-03-16T07:12:15.418Z,81.02
2023-03-16T07:13:15.416Z,81.55
2023-03-16T07:14:15.517Z,80.82
2023-03-16T07:15:15.420Z,80.47
2023-03-16T07:16:15.521Z,80.78
2023-03-16T07:17:15.377Z,80.22
2023-03-16T07:18:15.360Z,80.12
2023-03-16T07:19:15.374Z,79.91
2023-03-16T07:20:15.354Z,80.33
2023-03-16T07:21:15.355Z,79.70
2023-03-16T07:22:15.341Z,79.04
2023-03-16T07:23:15.321Z,78.83
2023-03-16T07:24:15.342Z,78.52
2023-03-16T07:25:15.345Z,78.63
2023-03-16T07:26:15.322Z,78.42
2023-03-16T07:27:15.285Z,78.20
2023-03-16T07:28:15.277Z,78.49
2023-03-16T07:29:15.269Z,78.63
2023-03-16T07:30:15.258Z,78.38
2023-03-16T07:31:15.270Z,78.17
2023-03-16T07:32:15.253Z,78.69
2023-03-16T07:33:15.233Z,77.89
2023-03-16T07:34:15.232Z,77.10
2023-03-16T07:35:15.214Z,77.51
2023-03-16T07:36:15.285Z,78.73
2023-03-16T07:37:16.172Z,77.72
2023-03-16T07:38:15.187Z,78.73
2023-03-16T07:39:15.185Z,78.63
2023-03-16T07:40:15.183Z,78.94
2023-03-16T07:41:15.180Z,78.03
2023-03-16T07:42:15.156Z,78.31
2023-03-16T07:43:15.192Z,77.34
2023-03-16T07:44:15.143Z,77.55
2023-03-16T07:45:15.132Z,77.55
2023-03-16T07:46:15.197Z,77.03
2023-03-16T07:47:15.119Z,76.61
2023-03-16T07:48:15.104Z,76.92
2023-03-16T07:49:15.104Z,77.55
2023-03-16T07:50:15.108Z,77.44
2023-03-16T07:51:15.117Z,77.40
2023-03-16T07:52:15.075Z,77.03
2023-03-16T07:53:15.072Z,76.72
2023-03-16T07:54:15.052Z,77.58
2023-03-16T07:55:15.049Z,77.93
2023-03-16T07:56:15.065Z,78.52
2023-03-16T07:57:15.035Z,78.17
2023-03-16T07:58:15.024Z,77.96
2023-03-16T07:59:15.037Z,77.83
2023-03-16T08:00:15.007Z,76.68
2023-03-16T08:01:15.000Z,76.78
2023-03-16T08:02:15.070Z,76.85
2023-03-16T08:03:15.036Z,76.02
2023-03-16T08:04:14.989Z,76.51
2023-03-16T08:05:14.959Z,76.51
2023-03-16T08:06:14.964Z,76.40
2023-03-16T08:07:14.954Z,76.29
2023-03-16T08:08:14.932Z,76.29
2023-03-16T08:09:15.004Z,76.54
2023-03-16T08:10:14.920Z,76.19
2023-03-16T08:11:14.914Z,77.23
2023-03-16T08:12:14.913Z,76.51
2023-03-16T08:13:14.889Z,76.57
2023-03-16T08:14:14.893Z,75.43
2023-03-16T08:15:14.925Z,75.95
2023-03-16T08:16:14.895Z,76.47
2023-03-16T08:17:14.872Z,75.85
2023-03-16T08:18:14.843Z,75.60
2023-03-16T08:19:14.846Z,77.20
2023-03-16T08:20:14.903Z,78.31
2023-03-16T08:21:14.822Z,78.27
2023-03-16T08:22:14.823Z,78.13
2023-03-16T08:23:14.805Z,77.82
2023-03-16T08:24:14.796Z,75.98
2023-03-16T08:25:14.788Z,76.99
2023-03-16T08:26:14.811Z,77.61
2023-03-16T08:27:14.776Z,77.30
2023-03-16T08:28:14.782Z,76.02
2023-03-16T08:29:14.824Z,75.81
2023-03-16T08:30:14.742Z,75.12
2023-03-16T08:31:14.926Z,75.09
2023-03-16T08:32:14.790Z,75.29
2023-03-16T08:33:14.718Z,75.29
2023-03-16T08:34:14.705Z,75.12
2023-03-16T08:35:14.701Z,75.81
2023-03-16T08:36:14.785Z,76.75
2023-03-16T08:37:14.886Z,78.03
2023-03-16T08:38:14.675Z,78.00
2023-03-16T08:39:14.670Z,78.31
2023-03-16T08:40:14.662Z,78.38
2023-03-16T08:41:14.655Z,77.72
2023-03-16T08:42:14.669Z,77.61
2023-03-16T08:43:14.639Z,76.72
2023-03-16T08:44:14.633Z,77.03
2023-03-16T08:45:14.641Z,77.34
2023-03-16T08:46:14.652Z,77.96
2023-03-16T08:47:14.628Z,78.55
2023-03-16T08:48:14.588Z,77.68
2023-03-16T08:49:14.572Z,76.61
2023-03-16T08:50:14.569Z,75.05
2023-03-16T08:51:14.560Z,75.81
2023-03-16T08:52:14.563Z,76.26
2023-03-16T08:53:14.557Z,75.23
2023-03-16T08:54:14.535Z,75.95
2023-03-16T08:55:14.526Z,75.54
2023-03-16T08:56:14.521Z,75.26
2023-03-16T08:57:14.520Z,75.26
2023-03-16T08:58:14.501Z,75.29
2023-03-16T08:59:54.926Z,75.98
2023-03-16T09:00:54.929Z,76.40
2023-03-16T09:01:54.949Z,74.60
2023-03-16T09:02:54.914Z,72.60
2023-03-16T09:03:55.053Z,72.15
2023-03-16T09:04:54.889Z,72.53
2023-03-16T09:05:54.884Z,71.53
2023-03-16T09:07:07.870Z,70.16
2023-03-16T09:07:55.868Z,68.51
2023-03-16T09:08:54.865Z,68.58
2023-03-16T09:09:54.860Z,69.78
2023-03-16T09:10:54.852Z,70.12
2023-03-16T09:11:54.843Z,70.74
2023-03-16T09:12:54.840Z,70.05
2023-03-16T09:13:54.819Z,71.53
2023-03-16T09:15:35.936Z,74.36
2023-03-16T09:16:35.996Z,74.05
2023-03-16T09:17:35.943Z,73.94
2023-03-16T09:18:35.923Z,73.94
2023-03-16T09:19:53.175Z,74.12
2023-03-16T09:20:37.231Z,74.08
2023-03-16T09:21:35.899Z,73.39
2023-03-16T09:22:36.074Z,74.57
2023-03-16T09:23:35.877Z,74.77
2023-03-16T09:24:35.874Z,75.36
2023-03-16T09:25:35.867Z,77.19
2023-03-16T09:26:35.977Z,76.26
2023-03-16T09:27:35.856Z,72.01
2023-03-16T09:28:35.854Z,73.57
2023-03-16T09:29:35.831Z,74.29
2023-03-16T09:30:35.817Z,74.60
2023-03-16T09:31:35.912Z,73.32
2023-03-16T09:32:35.910Z,73.22
2023-03-16T09:33:35.794Z,73.39
2023-03-16T09:34:35.797Z,72.67
2023-03-16T09:35:36.413Z,73.46
2023-03-16T09:36:35.772Z,71.57
2023-03-16T09:37:45.056Z,70.87
2023-03-16T09:38:38.873Z,72.33
2023-03-16T09:39:36.854Z,71.19
2023-03-16T09:40:36.916Z,70.70
2023-03-16T09:41:36.843Z,71.70
2023-03-16T09:42:36.842Z,71.70
2023-03-16T09:43:36.820Z,70.26
2023-03-16T09:44:36.812Z,70.18
2023-03-16T09:45:36.820Z,72.05
2023-03-16T09:46:36.810Z,70.91
2023-03-16T09:47:36.822Z,71.94
2023-03-16T09:48:36.805Z,72.12
2023-03-16T09:49:36.771Z,71.91
2023-03-16T09:50:47.784Z,68.98
2023-03-16T09:51:38.777Z,69.40
2023-03-16T09:52:36.763Z,70.53
2023-03-16T09:53:36.736Z,72.05
2023-03-16T09:54:36.733Z,70.40
2023-03-16T09:55:36.733Z,70.67
2023-03-16T09:56:36.711Z,69.40
2023-03-16T09:57:36.717Z,67.85
2023-03-16T09:58:36.721Z,66.10
2023-03-16T09:59:36.693Z,66.72
2023-03-16T10:00:36.683Z,67.54
2023-03-16T10:01:36.673Z,67.65
2023-03-16T10:02:36.685Z,67.54
2023-03-16T10:03:36.671Z,67.44
2023-03-16T10:04:36.646Z,68.06
2023-03-16T10:05:36.643Z,68.44
2023-03-16T10:06:36.627Z,65.97
2023-03-16T10:07:36.634Z,66.27
2023-03-16T10:08:36.610Z,66.86
2023-03-16T10:09:36.609Z,67.79
2023-03-16T10:10:36.585Z,67.90
2023-03-16T10:11:36.605Z,67.14
2023-03-16T10:12:36.585Z,67.66
2023-03-16T10:13:36.578Z,66.11
2023-03-16T10:14:36.584Z,65.67
2023-03-16T10:15:36.547Z,64.22
2023-03-16T10:16:36.569Z,64.64
2023-03-16T10:17:36.542Z,62.99
2023-03-16T10:18:36.530Z,63.50
2023-03-16T10:19:36.506Z,64.95
2023-03-16T10:20:36.505Z,64.84
2023-03-16T10:21:36.493Z,63.47
2023-03-16T10:22:36.495Z,63.99
2023-03-16T10:23:36.480Z,64.40
2023-03-16T10:24:36.475Z,61.49
2023-03-16T10:25:36.460Z,59.97
2023-03-16T10:26:36.456Z,62.00
2023-03-16T10:27:36.453Z,59.77
2023-03-16T10:28:36.438Z,62.54
2023-03-16T10:29:36.448Z,61.00
2023-03-16T10:30:36.416Z,59.77
2023-03-16T10:31:36.421Z,59.79
2023-03-16T10:32:36.428Z,60.59
2023-03-16T10:33:36.393Z,59.97
2023-03-16T10:34:36.380Z,59.97
2023-03-16T10:35:36.364Z,57.37
2023-03-16T10:36:36.377Z,61.60
2023-03-16T10:37:36.361Z,63.12
2023-03-16T10:38:36.339Z,60.00
2023-03-16T10:39:36.333Z,59.09
2023-03-16T10:40:36.319Z,59.58
2023-03-16T10:41:36.313Z,59.38
2023-03-16T10:42:36.333Z,59.35
2023-03-16T10:43:36.307Z,58.63
2023-03-16T10:44:36.291Z,59.74
2023-03-16T10:45:36.275Z,59.12
2023-03-16T10:46:36.397Z,59.84
2023-03-16T10:47:36.287Z,58.47
2023-03-16T10:48:36.253Z,57.44
2023-03-16T10:49:36.246Z,57.42
2023-03-16T10:50:36.246Z,57.21
2023-03-16T10:51:36.234Z,57.73
2023-03-16T10:52:36.217Z,58.65
2023-03-16T10:53:37.221Z,57.50
2023-03-16T10:54:37.213Z,59.11
2023-03-16T10:55:36.196Z,57.16
2023-03-16T10:56:36.190Z,54.28
2023-03-16T10:57:36.181Z,54.20
2023-03-16T10:59:08.090Z,54.85
2023-03-16T10:59:36.162Z,57.59
2023-03-16T11:00:36.170Z,55.43
2023-03-16T11:01:36.177Z,57.59
2023-03-16T11:02:36.147Z,55.30
2023-03-16T11:03:37.172Z,54.79
2023-03-16T11:04:37.136Z,54.59
2023-03-16T11:05:36.113Z,54.38
2023-03-16T11:06:36.105Z,54.92
2023-03-16T11:07:36.088Z,57.03
2023-03-16T11:08:36.095Z,59.40
2023-03-16T11:09:36.073Z,59.09
2023-03-16T11:10:40.477Z,57.73
2023-03-16T11:11:38.057Z,54.94
2023-03-16T11:12:36.045Z,53.58
2023-03-16T11:13:36.070Z,53.79
2023-03-16T11:14:36.035Z,53.87
2023-03-16T11:15:36.016Z,53.56
2023-03-16T11:16:36.063Z,53.35
2023-03-16T11:17:36.001Z,53.64
2023-03-16T11:18:35.998Z,53.64
2023-03-16T11:19:35.975Z,53.43
2023-03-16T11:20:35.963Z,53.64
2023-03-16T11:21:35.957Z,54.15
2023-03-16T11:22:35.953Z,54.05
2023-03-16T11:23:35.953Z,53.12
2023-03-16T11:24:35.916Z,54.15
2023-03-16T11:25:35.917Z,53.64
2023-03-16T11:26:35.902Z,54.13
2023-03-16T11:27:35.895Z,53.43
2023-03-16T11:28:35.894Z,51.76
2023-03-16T11:29:35.881Z,51.45
2023-03-16T11:30:35.870Z,52.51
2023-03-16T11:31:35.852Z,51.76
2023-03-16T11:32:35.919Z,53.00
2023-03-16T11:33:35.845Z,53.28
2023-03-16T11:34:35.826Z,53.89
2023-03-16T11:35:38.437Z,53.79
2023-03-16T11:36:35.850Z,53.36
2023-03-16T11:37:35.793Z,52.33
2023-03-16T11:38:35.797Z,51.07
2023-03-16T11:39:35.776Z,52.31
2023-03-16T11:40:35.766Z,53.46
2023-03-16T11:41:35.755Z,53.49
2023-03-16T11:42:35.765Z,51.07
2023-03-16T11:43:35.760Z,52.45
2023-03-16T11:44:35.724Z,55.05
2023-03-16T11:45:35.715Z,55.15
2023-03-16T11:46:35.757Z,57.82
2023-03-16T11:47:35.696Z,57.59
2023-03-16T11:48:35.695Z,55.10
2023-03-16T11:49:35.674Z,56.23
2023-03-16T11:50:35.676Z,53.48
2023-03-16T11:51:35.662Z,54.82
2023-03-16T11:52:35.643Z,53.97
2023-03-16T11:53:35.642Z,54.69
2023-03-16T11:54:35.625Z,56.41
2023-03-16T11:55:35.614Z,56.08
2023-03-16T11:56:35.612Z,56.26
2023-03-16T11:57:35.588Z,55.33
2023-03-16T11:58:35.592Z,56.90
2023-03-16T11:59:35.571Z,56.05
2023-03-16T12:00:35.552Z,54.82
2023-03-16T12:01:35.574Z,54.15
2023-03-16T12:02:35.601Z,57.01
2023-03-16T12:03:35.719Z,55.05
2023-03-16T12:04:35.520Z,57.42
2023-03-16T12:05:35.534Z,57.08
2023-03-16T12:06:35.496Z,56.26
2023-03-16T12:07:35.508Z,56.74
2023-03-16T12:08:35.488Z,56.02
2023-03-16T12:09:35.472Z,54.82
2023-03-16T12:10:35.466Z,56.98
2023-03-16T12:11:35.452Z,55.46
2023-03-16T12:12:35.447Z,54.61
2023-03-16T12:13:35.441Z,54.07
2023-03-16T12:14:35.423Z,53.56
2023-03-16T12:15:35.414Z,53.66
2023-03-16T12:16:48.361Z,53.77
2023-03-16T12:17:37.429Z,51.92
2023-03-16T12:18:35.397Z,51.63
2023-03-16T12:19:35.377Z,54.49
2023-03-16T12:20:35.364Z,53.77
2023-03-16T12:21:35.362Z,53.43
2023-03-16T12:22:35.348Z,53.02
2023-03-16T12:23:35.359Z,51.66
2023-03-16T12:24:35.327Z,51.23
2023-03-16T12:25:35.322Z,50.82
2023-03-16T12:26:35.316Z,51.53
2023-03-16T12:27:35.305Z,52.36
2023-03-16T12:28:35.303Z,50.90
2023-03-16T12:29:35.304Z,51.64
2023-03-16T12:30:35.277Z,50.90
2023-03-16T12:31:35.291Z,49.74
2023-03-16T12:32:35.266Z,47.92
2023-03-16T12:33:35.276Z,47.47
2023-03-16T12:34:35.232Z,51.15
2023-03-16T12:35:35.284Z,51.04
2023-03-16T12:36:35.220Z,49.71
2023-03-16T12:37:35.212Z,49.91
2023-03-16T12:38:35.213Z,50.84
2023-03-16T12:39:35.203Z,50.63
2023-03-16T12:40:35.182Z,49.81
2023-03-16T12:41:35.173Z,50.92
2023-03-16T12:42:35.170Z,50.79
2023-03-16T12:43:35.236Z,49.77
2023-03-16T12:44:35.148Z,50.07
2023-03-16T12:45:35.192Z,49.05
2023-03-16T12:46:35.128Z,49.56
2023-03-16T12:47:35.115Z,49.26
2023-03-16T12:48:35.116Z,49.66
2023-03-16T12:49:35.098Z,50.48
2023-03-16T12:50:35.089Z,50.18
2023-03-16T12:51:35.072Z,49.77
2023-03-16T12:52:35.062Z,50.36
2023-03-16T12:53:35.087Z,49.95